This is the latest recevied weather packets stored in our database for station/object 1NW106. If no packets are shown the sender has not sent any weather packets the latest 10 day(s).
| Time | Temp. | Humidity | Pressure | Rain* | Wind** | Luminosity | Snow |
|---|---|---|---|---|---|---|---|
| 1787720968 | 26.11° C | 99% | 1004.7 hPa | 13.97 mm | - | - | - |
| 1787720368 | 26.11° C | 99% | 1005 hPa | 13.97 mm | - | - | - |
| 1787719768 | 26.11° C | 99% | 1005.4 hPa | 13.97 mm | - | - | - |
| 1787719168 | 26.11° C | 99% | 1006.2 hPa | 13.97 mm | - | - | - |
| 1787718568 | 26.11° C | 99% | 1006.3 hPa | 13.97 mm | - | - | - |
| 1787717968 | 26.67° C | 98% | 1007 hPa | 13.72 mm | - | - | - |
| 1787717368 | 27.22° C | 91% | 1008.2 hPa | 13.21 mm | - | - | - |
| 1787716768 | 27.22° C | 90% | 1008.4 hPa | 13.21 mm | - | - | - |
| 1787716168 | 27.22° C | 95% | 1007.6 hPa | 13.21 mm | - | - | - |
| 1787715568 | 26.67° C | 97% | 1007.4 hPa | 13.21 mm | - | - | - |
| 1787714968 | 26.67° C | 97% | 1007.4 hPa | 13.21 mm | - | - | - |
| 1787714368 | 26.11° C | 97% | 1007.4 hPa | 13.21 mm | - | - | - |
| 1787713768 | 26.11° C | 97% | 1007.4 hPa | 13.21 mm | - | - | - |
| 1787713168 | 25.56° C | 99% | 1007.2 hPa | 13.21 mm | - | - | - |
| 1787712568 | 25° C | 99% | 1007.2 hPa | 13.21 mm | - | - | - |
| 1787711968 | 25° C | 99% | 1006.4 hPa | 13.21 mm | - | - | - |
| 1787711368 | 25° C | 99% | 1006.5 hPa | 13.21 mm | - | - | - |
| 1787710768 | 25° C | 99% | 1006.8 hPa | 13.21 mm | - | - | - |
| 1787710168 | 25° C | 98% | 1007.3 hPa | 13.21 mm | - | - | - |
| 1787709568 | 25° C | 98% | 1007.2 hPa | 13.21 mm | - | - | - |
| 1787708968 | 25° C | 99% | 1007.1 hPa | 13.21 mm | - | - | - |
| 1787708368 | 24.44° C | 99% | 1007 hPa | 13.21 mm | - | - | - |
| 1787707768 | 24.44° C | 99% | 1006.8 hPa | 13.21 mm | - | - | - |
| 1787707168 | 24.44° C | 99% | 1006.6 hPa | 13.21 mm | - | - | - |
| 1787706568 | 24.44° C | 99% | 1006.5 hPa | 13.21 mm | - | - | - |
* Rain latest hour (hover to see other rain measurements)
** Current wind speed in m/s (hover to see current wind gust speed)